Time;durP1;ratioP1;P1;durP2;ratioP2;P2;SDS_P1;SDS_P2;PMS_P1;PMS_P2;Temp;Humidity;BMP_temperature;BMP_pressure;BME280_temperature;BME280_humidity;BME280_pressure;Samples;Min_cycle;Max_cycle;Signal;HPM_P1;HPM_P2
2021/04/17 00:00:27;;;;;;;12.05;5.18;;;6.20;99.90;;;;;;5072793;28;20032;-61
2021/04/17 00:02:55;;;;;;;15.75;5.40;;;6.30;99.90;;;;;;5072796;28;20362;-61
2021/04/17 00:05:21;;;;;;;12.27;5.20;;;6.20;99.90;;;;;;5072712;28;20024;-61
2021/04/17 00:07:47;;;;;;;10.63;5.60;;;6.20;99.90;;;;;;5071655;28;20032;-61
2021/04/17 00:10:17;;;;;;;9.98;4.95;;;6.20;99.90;;;;;;5072599;28;20017;-61
2021/04/17 00:12:43;;;;;;;11.60;5.40;;;6.10;99.90;;;;;;5072594;28;20035;-61
2021/04/17 00:15:09;;;;;;;14.55;5.88;;;6.10;99.90;;;;;;5072561;28;20422;-61
2021/04/17 00:17:34;;;;;;;11.55;5.38;;;6.10;99.90;;;;;;5072950;28;20427;-61
2021/04/17 00:20:00;;;;;;;12.48;5.75;;;6.10;99.90;;;;;;5072350;28;20154;-61
2021/04/17 00:22:26;;;;;;;12.15;5.70;;;6.00;99.90;;;;;;5072589;28;20027;-61
2021/04/17 00:24:51;;;;;;;11.40;5.63;;;6.00;99.90;;;;;;5072561;28;20381;-61
2021/04/17 00:27:17;;;;;;;17.08;5.95;;;6.00;99.90;;;;;;5072456;28;20032;-61
2021/04/17 00:29:46;;;;;;;17.13;6.18;;;6.00;99.90;;;;;;5072231;28;20575;-61
2021/04/17 00:32:17;;;;;;;12.88;5.65;;;6.00;99.90;;;;;;5072514;28;20043;-61
2021/04/17 00:34:43;;;;;;;12.75;6.07;;;5.90;99.90;;;;;;5070978;28;20024;-61
2021/04/17 00:37:09;;;;;;;14.75;6.03;;;5.90;99.90;;;;;;5070942;28;20081;-61
2021/04/17 00:39:34;;;;;;;10.40;5.82;;;5.90;99.90;;;;;;5071616;28;20071;-61
2021/04/17 00:42:00;;;;;;;12.55;5.88;;;5.80;99.90;;;;;;5071992;28;20465;-61
2021/04/17 00:44:26;;;;;;;12.48;5.85;;;5.80;99.90;;;;;;5071760;28;20056;-61
2021/04/17 00:46:52;;;;;;;15.25;6.13;;;5.80;99.90;;;;;;5072017;28;20024;-61
2021/04/17 00:49:17;;;;;;;11.70;5.70;;;5.80;99.90;;;;;;5070955;28;20031;-61
2021/04/17 00:51:43;;;;;;;15.52;5.85;;;5.80;99.90;;;;;;5072184;28;20465;-61
2021/04/17 00:54:09;;;;;;;13.23;6.35;;;5.70;99.90;;;;;;5071763;28;20020;-61
2021/04/17 00:56:35;;;;;;;16.90;6.43;;;5.80;99.90;;;;;;5071634;28;20457;-61
2021/04/17 00:59:02;;;;;;;14.98;5.90;;;5.70;99.90;;;;;;5070361;28;20119;-61
2021/04/17 01:01:27;;;;;;;14.55;6.20;;;5.70;99.90;;;;;;5070494;28;20029;-61
2021/04/17 01:04:14;;;;;;;17.85;6.07;;;5.70;99.90;;;;;;5071608;28;20028;-61
2021/04/17 01:06:55;;;;;;;15.90;6.60;;;5.70;99.90;;;;;;5071947;28;20024;-61
2021/04/17 01:09:38;;;;;;;14.95;6.80;;;5.60;99.90;;;;;;5071592;28;20017;-61
2021/04/17 01:12:19;;;;;;;15.57;6.45;;;5.60;99.90;;;;;;5071739;28;20035;-61
2021/04/17 01:14:50;;;;;;;14.05;6.72;;;5.60;99.90;;;;;;5070302;28;20029;-61
2021/04/17 01:17:17;;;;;;;16.55;6.93;;;5.60;99.90;;;;;;5071740;28;20052;-61
2021/04/17 01:19:59;;;;;;;12.93;5.80;;;5.60;99.90;;;;;;5071293;28;20028;-61
2021/04/17 01:22:25;;;;;;;15.57;6.45;;;5.60;99.90;;;;;;5071661;28;20078;-61
2021/04/17 01:25:17;;;;;;;13.48;6.32;;;5.60;99.90;;;;;;5071078;28;20025;-61
2021/04/17 01:27:42;;;;;;;13.15;6.18;;;5.50;99.90;;;;;;5071735;28;20017;-61
2021/04/17 01:30:15;;;;;;;12.77;6.35;;;5.50;99.90;;;;;;5070302;28;20024;-61
2021/04/17 01:32:42;;;;;;;18.27;6.70;;;5.40;99.90;;;;;;5071320;28;20028;-61
2021/04/17 01:35:15;;;;;;;14.07;6.43;;;5.50;99.90;;;;;;5071231;28;20027;-61
2021/04/17 01:38:09;;;;;;;14.88;7.40;;;5.50;99.90;;;;;;5071308;28;20392;-61
2021/04/17 01:40:37;;;;;;;12.43;6.45;;;5.50;99.90;;;;;;5070001;28;20485;-61
2021/04/17 01:43:03;;;;;;;13.88;6.95;;;5.50;99.90;;;;;;5071477;28;20016;-61
2021/04/17 01:45:30;;;;;;;12.73;6.28;;;5.40;99.90;;;;;;5071474;28;20491;-61
2021/04/17 01:47:59;;;;;;;12.93;6.50;;;5.40;99.90;;;;;;5071312;28;20112;-61
2021/04/17 01:50:28;;;;;;;15.88;7.13;;;5.40;99.90;;;;;;5069974;28;20074;-61
2021/04/17 01:52:57;;;;;;;12.18;6.30;;;5.40;99.90;;;;;;5072664;28;20378;-61
2021/04/17 01:55:23;;;;;;;12.98;7.00;;;5.40;99.90;;;;;;5073823;28;20082;-61
2021/04/17 01:57:50;;;;;;;10.05;6.35;;;5.30;99.90;;;;;;5075075;28;20125;-61
2021/04/17 02:00:16;;;;;;;16.50;7.07;;;5.30;99.90;;;;;;5074108;28;20020;-61
2021/04/17 02:02:42;;;;;;;13.50;6.72;;;5.30;99.90;;;;;;5073837;28;20029;-61
2021/04/17 02:05:08;;;;;;;12.55;6.43;;;5.30;99.90;;;;;;5074210;28;20397;-61
2021/04/17 02:07:34;;;;;;;12.93;6.15;;;5.20;99.90;;;;;;5075286;28;20032;-61
2021/04/17 02:09:59;;;;;;;13.57;6.82;;;5.20;99.90;;;;;;5075373;28;20024;-61
2021/04/17 02:12:25;;;;;;;13.43;6.63;;;5.20;99.90;;;;;;5074928;28;20031;-61
2021/04/17 02:14:51;;;;;;;16.52;7.15;;;5.20;99.90;;;;;;5074808;28;20023;-61
2021/04/17 02:17:34;;;;;;;21.75;7.05;;;5.20;99.90;;;;;;5073546;28;20381;-61
2021/04/17 02:20:31;;;;;;;16.23;6.82;;;5.20;99.90;;;;;;5074859;28;20032;-61
2021/04/17 02:22:57;;;;;;;10.30;6.57;;;5.10;99.90;;;;;;5074733;28;20035;-61
2021/04/17 02:25:23;;;;;;;12.45;7.13;;;5.10;99.90;;;;;;5074738;28;20013;-61
2021/04/17 02:27:50;;;;;;;12.30;6.63;;;5.10;99.90;;;;;;5073283;28;20223;-61
2021/04/17 02:30:19;;;;;;;14.30;7.35;;;5.00;99.90;;;;;;5074396;28;20032;-61
2021/04/17 02:32:45;;;;;;;13.05;7.15;;;5.00;99.90;;;;;;5073194;28;20028;-61
2021/04/17 02:35:11;;;;;;;14.07;7.00;;;5.00;99.90;;;;;;5072780;28;20162;-61
2021/04/17 02:37:37;;;;;;;15.25;7.65;;;5.00;99.90;;;;;;5074980;28;20108;-61
2021/04/17 02:40:03;;;;;;;14.18;8.20;;;4.90;99.90;;;;;;5074228;28;20351;-61
2021/04/17 02:42:28;;;;;;;18.60;7.88;;;4.90;99.90;;;;;;5074399;28;20020;-61
2021/04/17 02:44:54;;;;;;;14.60;8.25;;;4.90;99.90;;;;;;5074717;28;20377;-61
2021/04/17 02:47:20;;;;;;;13.75;7.82;;;4.90;99.90;;;;;;5072892;28;20502;-61
2021/04/17 02:49:45;;;;;;;19.05;8.27;;;4.90;99.90;;;;;;5073987;28;20021;-61
2021/04/17 02:52:14;;;;;;;16.17;7.72;;;4.90;99.90;;;;;;5073764;28;20024;-61
2021/04/17 02:54:40;;;;;;;18.02;8.38;;;4.90;99.90;;;;;;5074131;28;20025;-61
2021/04/17 02:57:06;;;;;;;14.80;7.45;;;4.90;99.90;;;;;;5073698;28;20044;-61
2021/04/17 02:59:31;;;;;;;12.50;7.60;;;4.80;99.90;;;;;;5072921;28;20056;-61
2021/04/17 03:01:57;;;;;;;13.10;7.38;;;4.80;99.90;;;;;;5072481;28;20056;-61
2021/04/17 03:04:23;;;;;;;15.68;8.70;;;4.80;99.90;;;;;;5073567;28;20374;-61
2021/04/17 03:06:52;;;;;;;17.48;7.60;;;4.80;99.90;;;;;;5074133;28;20021;-61
2021/04/17 03:09:18;;;;;;;20.35;8.23;;;4.80;99.90;;;;;;5073895;28;20016;-61
2021/04/17 03:11:43;;;;;;;19.35;8.25;;;4.80;99.90;;;;;;5072767;28;20067;-61
2021/04/17 03:14:09;;;;;;;15.55;7.45;;;4.80;99.90;;;;;;5073870;28;20497;-61
2021/04/17 03:16:35;;;;;;;17.20;8.73;;;4.80;99.90;;;;;;5074149;28;20052;-61
2021/04/17 03:19:00;;;;;;;15.73;8.35;;;4.80;99.90;;;;;;5072226;28;20040;-61
2021/04/17 03:21:26;;;;;;;19.00;8.55;;;4.80;99.90;;;;;;5073172;28;20461;-61
2021/04/17 03:23:51;;;;;;;14.90;8.63;;;4.70;99.90;;;;;;5073443;28;20017;-61
2021/04/17 03:26:20;;;;;;;15.75;8.35;;;4.80;99.90;;;;;;5073284;28;20469;-61
2021/04/17 03:28:46;;;;;;;19.02;9.25;;;4.70;99.90;;;;;;5072845;28;20048;-61
2021/04/17 03:31:12;;;;;;;22.50;9.13;;;4.70;99.90;;;;;;5073716;28;20032;-61
2021/04/17 03:33:39;;;;;;;15.55;9.43;;;4.70;99.90;;;;;;5073269;28;20166;-61
2021/04/17 03:36:05;;;;;;;20.70;8.95;;;4.60;99.90;;;;;;5073388;28;20107;-61
2021/04/17 03:38:30;;;;;;;16.92;8.68;;;4.60;99.90;;;;;;5073386;28;20039;-61
2021/04/17 03:41:05;;;;;;;16.13;9.23;;;4.60;99.90;;;;;;5071887;28;20021;-61
2021/04/17 03:43:31;;;;;;;19.15;9.23;;;4.60;99.90;;;;;;5071992;28;20021;-61
2021/04/17 03:45:56;;;;;;;19.77;9.50;;;4.50;99.90;;;;;;5073014;28;20029;-61
2021/04/17 03:48:22;;;;;;;20.05;9.93;;;4.50;99.90;;;;;;5071954;28;20404;-61
2021/04/17 03:50:47;;;;;;;19.98;9.20;;;4.50;99.90;;;;;;5073019;28;20135;-61
2021/04/17 03:53:13;;;;;;;17.23;9.43;;;4.50;99.90;;;;;;5073310;28;20074;-61
2021/04/17 03:55:42;;;;;;;14.93;9.13;;;4.50;99.90;;;;;;5072499;28;20024;-61
2021/04/17 03:58:08;;;;;;;17.60;10.10;;;4.40;99.90;;;;;;5071544;28;20037;-61
2021/04/17 04:00:34;;;;;;;22.17;10.88;;;4.50;99.90;;;;;;5073207;28;20534;-61
2021/04/17 04:03:00;;;;;;;19.10;9.80;;;4.50;99.90;;;;;;5072723;28;20377;-61
2021/04/17 04:05:25;;;;;;;20.00;10.10;;;4.50;99.90;;;;;;5071152;28;20028;-61
2021/04/17 04:07:51;;;;;;;21.40;9.93;;;4.40;99.90;;;;;;5071625;28;20020;-61
2021/04/17 04:10:17;;;;;;;20.65;10.27;;;4.40;99.90;;;;;;5072635;28;20017;-61
2021/04/17 04:12:44;;;;;;;21.40;10.18;;;4.40;99.90;;;;;;5072492;28;20046;-61
2021/04/17 04:15:12;;;;;;;19.45;9.55;;;4.40;99.90;;;;;;5071848;28;20032;-61
2021/04/17 04:17:37;;;;;;;22.13;11.63;;;4.40;99.90;;;;;;5072421;28;20013;-61
2021/04/17 04:20:05;;;;;;;18.02;10.30;;;4.30;99.90;;;;;;5072891;28;20023;-61
2021/04/17 04:22:33;;;;;;;19.65;10.75;;;4.30;99.90;;;;;;5072386;28;20037;-61
2021/04/17 04:24:58;;;;;;;20.20;10.15;;;4.30;99.90;;;;;;5072277;28;20426;-61
2021/04/17 04:27:24;;;;;;;20.40;10.50;;;4.30;99.90;;;;;;5070807;28;20063;-61
2021/04/17 04:29:50;;;;;;;22.38;10.45;;;4.30;99.90;;;;;;5072242;28;20079;-61
2021/04/17 04:32:15;;;;;;;20.75;10.25;;;4.30;99.90;;;;;;5071263;28;20028;-61
2021/04/17 04:34:41;;;;;;;18.58;10.13;;;4.30;99.90;;;;;;5072566;28;20056;-61
2021/04/17 04:37:06;;;;;;;19.90;10.68;;;4.30;99.90;;;;;;5072514;28;20035;-61
2021/04/17 04:39:32;;;;;;;21.45;10.75;;;4.30;99.90;;;;;;5072468;28;20543;-61
2021/04/17 04:41:58;;;;;;;19.00;10.30;;;4.20;99.90;;;;;;5071891;28;20024;-61
2021/04/17 04:44:23;;;;;;;21.65;11.25;;;4.20;99.90;;;;;;5071967;28;20103;-61
2021/04/17 04:46:49;;;;;;;21.60;10.95;;;4.20;99.90;;;;;;5072465;28;20032;-61
2021/04/17 04:49:15;;;;;;;17.52;10.73;;;4.20;99.90;;;;;;5072385;28;20131;-61
2021/04/17 04:51:40;;;;;;;23.60;11.10;;;4.20;99.90;;;;;;5072424;28;20538;-61
2021/04/17 04:54:06;;;;;;;21.83;11.13;;;4.10;99.90;;;;;;5072306;28;20538;-61
2021/04/17 04:56:35;;;;;;;23.63;11.10;;;4.20;99.90;;;;;;5071991;28;20056;-61
2021/04/17 04:59:00;;;;;;;19.75;11.10;;;4.20;99.90;;;;;;5072065;28;20108;-61
2021/04/17 05:01:26;;;;;;;21.73;11.43;;;4.10;99.90;;;;;;5071814;28;20639;-61
2021/04/17 05:03:52;;;;;;;21.65;10.82;;;4.10;99.90;;;;;;5071597;28;20551;-61
2021/04/17 05:06:18;;;;;;;29.70;11.65;;;4.10;99.90;;;;;;5071663;28;20049;-61
2021/04/17 05:08:45;;;;;;;26.77;11.38;;;4.10;99.90;;;;;;5070706;28;20024;-61
2021/04/17 05:11:10;;;;;;;22.05;11.52;;;4.20;99.90;;;;;;5071568;28;20420;-61
2021/04/17 05:13:36;;;;;;;19.67;11.35;;;4.20;99.90;;;;;;5071580;28;20043;-61
2021/04/17 05:16:02;;;;;;;21.73;10.70;;;4.20;99.90;;;;;;5071756;28;20039;-61
2021/04/17 05:18:28;;;;;;;20.85;10.75;;;4.10;99.90;;;;;;5071360;28;20029;-61
2021/04/17 05:20:53;;;;;;;18.10;10.18;;;4.10;99.90;;;;;;5070054;28;20500;-61
2021/04/17 05:23:19;;;;;;;18.65;10.00;;;4.20;99.90;;;;;;5070064;28;20016;-61
2021/04/17 05:25:44;;;;;;;20.25;10.57;;;4.20;99.90;;;;;;5071313;28;20427;-61
2021/04/17 05:28:11;;;;;;;27.77;10.70;;;4.20;99.90;;;;;;5071065;28;20435;-61
2021/04/17 05:30:37;;;;;;;17.42;10.05;;;4.20;99.90;;;;;;5071000;28;20025;-61
2021/04/17 05:33:03;;;;;;;23.65;10.93;;;4.20;99.90;;;;;;5069807;28;20083;-61
2021/04/17 05:35:29;;;;;;;20.67;9.98;;;4.20;99.90;;;;;;5072249;28;20042;-61
2021/04/17 05:37:54;;;;;;;23.65;10.55;;;4.30;99.90;;;;;;5072762;28;20103;-61
2021/04/17 05:40:20;;;;;;;19.85;9.98;;;4.30;99.90;;;;;;5071687;28;20055;-61
2021/04/17 05:42:48;;;;;;;16.90;8.68;;;4.30;99.90;;;;;;5072717;28;20553;-61
2021/04/17 05:45:17;;;;;;;14.80;8.38;;;4.30;99.90;;;;;;5071947;28;20052;-61
2021/04/17 05:47:43;;;;;;;21.05;8.90;;;4.40;99.90;;;;;;5071202;28;20021;-61
2021/04/17 05:50:09;;;;;;;17.90;8.95;;;4.40;99.90;;;;;;5069671;28;20029;-61
2021/04/17 05:52:34;;;;;;;14.82;9.23;;;4.40;99.90;;;;;;5070807;28;20032;-61
2021/04/17 05:55:05;;;;;;;16.08;9.05;;;4.50;99.90;;;;;;5070762;28;20523;-61
2021/04/17 05:57:31;;;;;;;23.35;14.48;;;4.50;99.90;;;;;;5069497;28;20041;-61
2021/04/17 05:59:56;;;;;;;15.50;8.60;;;4.50;99.90;;;;;;5070991;28;20032;-61
2021/04/17 06:02:24;;;;;;;15.52;8.48;;;4.60;99.90;;;;;;5070661;28;20028;-61
2021/04/17 06:04:52;;;;;;;16.23;8.93;;;4.60;99.90;;;;;;5070761;28;20023;-61
2021/04/17 06:07:18;;;;;;;13.90;8.23;;;4.70;99.90;;;;;;5069726;28;20474;-61
2021/04/17 06:09:43;;;;;;;20.77;8.38;;;4.70;99.90;;;;;;5070477;28;20024;-61
2021/04/17 06:12:10;;;;;;;17.23;8.15;;;4.70;99.90;;;;;;5069421;28;20029;-61
2021/04/17 06:14:35;;;;;;;17.25;8.15;;;4.70;99.90;;;;;;5070469;28;20367;-61
2021/04/17 06:17:01;;;;;;;15.70;8.52;;;4.80;99.90;;;;;;5070698;28;20043;-61
2021/04/17 06:19:26;;;;;;;18.63;8.20;;;4.90;99.90;;;;;;5069266;28;20428;-61
2021/04/17 06:21:52;;;;;;;15.20;8.25;;;4.90;99.90;;;;;;5070862;28;20116;-61
2021/04/17 06:24:17;;;;;;;11.68;7.88;;;5.10;99.90;;;;;;5072836;28;20082;-61
2021/04/17 06:26:43;;;;;;;14.60;7.57;;;5.10;99.90;;;;;;5069485;28;20491;-61
2021/04/17 06:29:09;;;;;;;13.52;6.90;;;5.10;99.90;;;;;;5070687;28;20024;-61
2021/04/17 06:31:35;;;;;;;17.10;7.00;;;5.20;99.90;;;;;;5069225;28;20031;-61
2021/04/17 06:34:00;;;;;;;13.68;7.47;;;5.20;99.90;;;;;;5070606;28;20033;-61
2021/04/17 06:36:26;;;;;;;13.15;7.50;;;5.30;99.90;;;;;;5071163;28;20024;-61
2021/04/17 06:38:52;;;;;;;14.05;6.53;;;5.40;99.90;;;;;;5073393;28;20028;-60
2021/04/17 06:41:21;;;;;;;13.82;7.72;;;5.50;99.90;;;;;;5073320;28;20016;-60
2021/04/17 06:43:48;;;;;;;11.13;6.75;;;5.50;99.90;;;;;;5074774;28;20031;-60
2021/04/17 06:46:14;;;;;;;20.48;8.50;;;5.50;99.90;;;;;;5073421;28;20020;-60
2021/04/17 06:48:41;;;;;;;14.20;7.22;;;5.60;99.90;;;;;;5074390;28;20029;-60
2021/04/17 06:51:17;;;;;;;13.05;7.05;;;5.70;99.90;;;;;;5073437;28;20031;-60
2021/04/17 06:53:44;;;;;;;15.13;6.40;;;5.90;99.90;;;;;;5075031;28;20025;-61
2021/04/17 06:56:11;;;;;;;15.13;7.10;;;5.90;99.90;;;;;;5075012;28;20051;-60
2021/04/17 06:58:39;;;;;;;11.82;6.78;;;6.00;99.90;;;;;;5073910;28;20504;-60
2021/04/17 07:01:06;;;;;;;11.45;5.78;;;6.20;99.90;;;;;;5074028;28;20050;-60
2021/04/17 07:03:31;;;;;;;17.70;7.40;;;6.30;99.90;;;;;;5073976;28;20025;-60
2021/04/17 07:05:57;;;;;;;14.32;6.70;;;6.30;99.90;;;;;;5074359;28;20446;-60
2021/04/17 07:08:23;;;;;;;14.07;6.03;;;6.50;99.90;;;;;;5074678;28;20477;-61
2021/04/17 07:10:48;;;;;;;11.85;6.68;;;6.50;99.90;;;;;;5074189;28;20378;-60
2021/04/17 07:13:17;;;;;;;13.68;6.60;;;6.50;99.90;;;;;;5073727;28;20036;-60
2021/04/17 07:15:44;;;;;;;14.77;6.50;;;6.40;99.90;;;;;;5074327;28;20032;-60
2021/04/17 07:18:29;;;;;;;11.35;6.40;;;6.50;99.90;;;;;;5074466;28;20032;-61
2021/04/17 07:20:56;;;;;;;12.80;6.00;;;6.80;99.90;;;;;;5074289;28;20048;-61
2021/04/17 07:23:31;;;;;;;12.07;5.30;;;7.50;99.90;;;;;;5073890;28;20469;-61
2021/04/17 07:26:21;;;;;;;12.95;4.97;;;8.70;99.90;;;;;;5073874;28;20032;-61
2021/04/17 07:29:01;;;;;;;10.75;4.50;;;9.90;99.90;;;;;;5073134;28;20477;-61
2021/04/17 07:31:29;;;;;;;8.85;4.43;;;10.40;99.90;;;;;;5073740;28;20024;-62
2021/04/17 07:33:57;;;;;;;7.47;4.55;;;10.80;99.90;;;;;;5073448;28;20488;-63
2021/04/17 07:36:43;;;;;;;12.90;4.25;;;11.90;99.90;;;;;;5073162;28;20028;-62
2021/04/17 07:39:45;;;;;;;12.20;4.90;;;12.20;99.90;;;;;;5072837;28;20020;-62
2021/04/17 07:42:13;;;;;;;11.23;5.00;;;13.10;97.70;;;;;;5071101;28;20040;-62
2021/04/17 07:44:44;;;;;;;8.35;4.20;;;13.50;96.00;;;;;;5072718;28;20028;-63
2021/04/17 07:47:10;;;;;;;14.88;4.65;;;13.90;93.90;;;;;;5072899;28;20025;-62
2021/04/17 07:49:37;;;;;;;8.38;4.38;;;14.10;92.80;;;;;;5071477;28;20072;-62
2021/04/17 07:52:11;;;;;;;5.55;3.83;;;14.10;91.40;;;;;;5072576;28;20020;-62
2021/04/17 07:54:59;;;;;;;9.93;4.88;;;14.70;88.20;;;;;;5072489;28;20038;-62
2021/04/17 07:57:40;;;;;;;7.72;4.25;;;14.00;89.80;;;;;;5071609;28;20072;-62
2021/04/17 08:00:09;;;;;;;10.63;4.20;;;14.20;87.90;;;;;;5070964;28;20024;-62
2021/04/17 08:02:36;;;;;;;6.55;3.75;;;14.40;85.60;;;;;;5072636;28;20036;-62
2021/04/17 08:05:04;;;;;;;6.57;3.88;;;14.00;84.70;;;;;;5072113;28;20024;-61
2021/04/17 08:07:30;;;;;;;10.20;4.45;;;14.60;84.60;;;;;;5070912;28;20059;-61
2021/04/17 08:10:00;;;;;;;11.35;4.20;;;14.80;80.60;;;;;;5070852;28;20541;-62
2021/04/17 08:12:26;;;;;;;8.50;4.40;;;14.60;81.10;;;;;;5072104;28;20028;-62
2021/04/17 08:14:55;;;;;;;8.25;4.03;;;15.50;79.50;;;;;;5072322;28;20090;-62
2021/04/17 08:17:22;;;;;;;10.60;4.45;;;16.00;75.90;;;;;;5072092;28;20028;-62
2021/04/17 08:19:47;;;;;;;9.23;4.65;;;15.70;74.30;;;;;;5071966;28;20119;-63
2021/04/17 08:22:15;;;;;;;9.40;4.43;;;15.60;74.20;;;;;;5071850;28;20776;-62
2021/04/17 08:24:41;;;;;;;8.57;3.83;;;15.70;74.10;;;;;;5071824;28;20031;-62
2021/04/17 08:27:07;;;;;;;10.57;4.10;;;16.30;67.20;;;;;;5071415;28;20025;-62
2021/04/17 08:29:51;;;;;;;8.82;3.90;;;15.90;68.30;;;;;;5071625;28;20021;-62
2021/04/17 08:32:32;;;;;;;8.02;4.70;;;16.20;65.70;;;;;;5071267;28;20052;-62
2021/04/17 08:35:00;;;;;;;8.63;4.35;;;16.70;63.80;;;;;;5070389;28;20066;-62
2021/04/17 08:37:26;;;;;;;10.65;3.90;;;15.30;64.30;;;;;;5070345;28;20079;-61
2021/04/17 08:39:55;;;;;;;8.60;3.67;;;14.90;65.90;;;;;;5071722;28;20557;-61
2021/04/17 08:42:53;;;;;;;9.35;3.88;;;14.70;67.40;;;;;;5071555;28;20032;-62
2021/04/17 08:45:20;;;;;;;7.78;3.97;;;15.30;64.60;;;;;;5069853;28;20033;-62
2021/04/17 08:47:54;;;;;;;9.75;3.80;;;15.80;62.90;;;;;;5071715;28;20016;-62
2021/04/17 08:50:30;;;;;;;7.57;3.03;;;16.20;61.60;;;;;;5071388;28;20032;-62
2021/04/17 08:53:07;;;;;;;7.85;3.40;;;16.10;60.50;;;;;;5069788;28;20020;-62
2021/04/17 08:55:38;;;;;;;7.53;3.78;;;16.30;58.70;;;;;;5071214;28;20025;-62
2021/04/17 08:58:21;;;;;;;8.55;3.33;;;16.20;59.20;;;;;;5071168;28;20037;-62
2021/04/17 09:00:53;;;;;;;5.28;3.38;;;16.00;58.40;;;;;;5070765;28;20044;-62
2021/04/17 09:03:37;;;;;;;7.57;3.47;;;16.60;57.90;;;;;;5070976;28;20350;-62
2021/04/17 09:06:08;;;;;;;8.07;3.45;;;17.00;58.10;;;;;;5071379;28;20028;-62
2021/04/17 09:08:37;;;;;;;11.13;3.70;;;16.80;56.30;;;;;;5071166;28;20464;-62
2021/04/17 09:11:33;;;;;;;10.40;3.20;;;16.80;56.20;;;;;;5069686;28;20025;-62
2021/04/17 09:13:59;;;;;;;7.63;3.30;;;17.40;55.30;;;;;;5070951;28;20074;-62
2021/04/17 09:16:38;;;;;;;8.27;3.20;;;16.40;55.90;;;;;;5070909;28;20123;-62
2021/04/17 09:19:04;;;;;;;7.85;3.42;;;16.60;56.90;;;;;;5069523;28;20028;-62
2021/04/17 09:21:32;;;;;;;7.35;3.50;;;17.00;54.90;;;;;;5070776;28;20035;-62
2021/04/17 09:23:58;;;;;;;8.68;3.95;;;17.10;54.80;;;;;;5069518;28;20020;-62
2021/04/17 09:26:30;;;;;;;7.85;3.80;;;16.60;54.60;;;;;;5071111;28;20019;-62
2021/04/17 09:28:57;;;;;;;8.20;4.00;;;16.50;55.80;;;;;;5070741;28;20047;-62
2021/04/17 09:31:23;;;;;;;8.80;3.75;;;16.70;55.00;;;;;;5070573;28;20033;-62
2021/04/17 09:33:58;;;;;;;6.65;3.78;;;16.60;56.10;;;;;;5070793;28;20035;-62
2021/04/17 09:36:24;;;;;;;5.00;3.35;;;16.50;54.00;;;;;;5070813;28;20121;-62
2021/04/17 09:38:49;;;;;;;5.47;3.47;;;16.50;54.40;;;;;;5070613;28;20484;-62
2021/04/17 09:41:15;;;;;;;10.48;3.60;;;17.00;53.50;;;;;;5070270;28;20028;-62
2021/04/17 09:43:41;;;;;;;8.45;3.70;;;17.20;52.20;;;;;;5070299;28;20109;-62
2021/04/17 09:46:19;;;;;;;5.18;3.33;;;18.00;52.10;;;;;;5070815;28;20066;-62
2021/04/17 09:48:45;;;;;;;10.50;3.70;;;17.90;51.00;;;;;;5070475;28;20020;-62
2021/04/17 09:51:26;;;;;;;4.63;3.28;;;17.50;51.90;;;;;;5070652;28;20043;-62
2021/04/17 09:53:53;;;;;;;6.97;4.00;;;17.40;50.70;;;;;;5070522;28;20072;-62
2021/04/17 09:56:43;;;;;;;5.65;3.60;;;16.90;52.60;;;;;;5070247;28;20562;-62
2021/04/17 09:59:15;;;;;;;6.07;3.53;;;16.50;53.00;;;;;;5070573;28;20027;-62
2021/04/17 10:01:54;;;;;;;5.55;3.42;;;16.90;53.10;;;;;;5070167;28;20028;-62
2021/04/17 10:04:20;;;;;;;4.30;3.05;;;16.60;50.30;;;;;;5070423;28;20031;-62
2021/04/17 10:06:55;;;;;;;5.03;3.20;;;16.70;50.40;;;;;;5070579;28;20067;-62
2021/04/17 10:09:21;;;;;;;4.95;3.00;;;16.60;50.20;;;;;;5070382;28;20020;-62
2021/04/17 10:11:48;;;;;;;9.07;3.80;;;16.70;49.50;;;;;;5070540;28;20048;-62
2021/04/17 10:14:16;;;;;;;5.03;3.10;;;16.90;50.30;;;;;;5072302;28;20036;-62
2021/04/17 10:16:47;;;;;;;6.18;3.67;;;17.50;49.50;;;;;;5074439;28;20028;-62
2021/04/17 10:19:19;;;;;;;5.63;3.42;;;18.00;47.70;;;;;;5074183;28;20427;-62
2021/04/17 10:21:53;;;;;;;6.53;4.15;;;17.50;47.60;;;;;;5074130;28;20406;-62
2021/04/17 10:24:21;;;;;;;5.88;3.35;;;17.40;49.20;;;;;;5074090;28;20036;-62
2021/04/17 10:27:09;;;;;;;4.53;3.30;;;17.50;47.00;;;;;;5073978;28;20075;-62
2021/04/17 10:29:43;;;;;;;9.13;3.90;;;17.10;48.40;;;;;;5073876;28;20016;-62
2021/04/17 10:32:22;;;;;;;6.30;4.32;;;16.30;49.40;;;;;;5073782;28;20032;-62
2021/04/17 10:34:50;;;;;;;9.23;4.68;;;17.00;48.30;;;;;;5073864;28;20017;-62
2021/04/17 10:37:22;;;;;;;8.50;5.45;;;17.40;48.90;;;;;;5073848;28;20071;-62
2021/04/17 10:40:21;;;;;;;9.30;4.43;;;17.70;49.60;;;;;;5073971;28;20103;-62
2021/04/17 10:42:53;;;;;;;15.70;6.35;;;18.00;49.30;;;;;;5073221;28;20051;-62
2021/04/17 10:45:21;;;;;;;12.20;7.32;;;18.00;49.10;;;;;;5072278;28;20527;-62
2021/04/17 10:48:04;;;;;;;6.18;4.53;;;18.70;48.30;;;;;;5073785;28;20107;-62
2021/04/17 10:50:31;;;;;;;;;;;17.90;48.30;;;;;;5074108;28;20021;-62
2021/04/17 10:53:27;;;;;;;7.65;4.10;;;16.70;50.00;;;;;;5073512;28;20378;-62
2021/04/17 10:55:55;;;;;;;8.52;4.93;;;16.30;50.80;;;;;;5072701;28;20041;-62
2021/04/17 10:58:21;;;;;;;9.98;4.63;;;15.30;52.30;;;;;;5073419;28;20078;-62
2021/04/17 11:00:57;;;;;;;8.18;4.85;;;16.00;51.60;;;;;;5073324;28;20032;-62
2021/04/17 11:03:26;;;;;;;6.65;4.72;;;16.40;50.60;;;;;;5073249;28;20017;-62
2021/04/17 11:05:51;;;;;;;8.10;5.10;;;17.30;49.70;;;;;;5073299;28;20032;-62
2021/04/17 11:08:30;;;;;;;7.60;4.95;;;16.60;49.60;;;;;;5072087;28;20020;-62
2021/04/17 11:10:56;;;;;;;5.70;4.18;;;16.20;50.60;;;;;;5074467;28;20489;-62
2021/04/17 11:13:33;;;;;;;6.03;4.20;;;15.50;51.30;;;;;;5074037;28;20108;-62
2021/04/17 11:15:59;;;;;;;7.68;4.47;;;14.90;52.00;;;;;;5073423;28;20443;-61
2021/04/17 11:18:30;;;;;;;9.75;4.20;;;14.60;52.40;;;;;;5074247;28;20024;-62
2021/04/17 11:21:02;;;;;;;8.30;4.35;;;15.50;51.50;;;;;;5073202;28;20060;-62
2021/04/17 11:23:38;;;;;;;8.97;4.57;;;16.40;49.50;;;;;;5072817;28;20059;-62
2021/04/17 11:26:26;;;;;;;6.43;4.78;;;16.50;49.20;;;;;;5074212;28;20087;-62
2021/04/17 11:28:57;;;;;;;9.43;4.50;;;15.90;50.70;;;;;;5072911;28;20372;-62
2021/04/17 11:31:25;;;;;;;9.43;4.50;;;15.80;51.10;;;;;;5071425;28;20387;-62
2021/04/17 11:33:53;;;;;;;7.95;3.88;;;16.60;49.60;;;;;;5071677;28;20032;-62
2021/04/17 11:36:21;;;;;;;6.65;3.90;;;16.80;47.90;;;;;;5072925;28;20020;-62
2021/04/17 11:38:47;;;;;;;5.35;3.58;;;18.30;47.00;;;;;;5071330;28;20497;-62
2021/04/17 11:41:13;;;;;;;5.10;4.10;;;18.50;45.00;;;;;;5072631;28;20067;-63
2021/04/17 11:43:39;;;;;;;6.38;3.83;;;18.50;45.10;;;;;;5071447;28;20052;-62
2021/04/17 11:46:05;;;;;;;9.13;5.00;;;18.60;44.10;;;;;;5073023;28;20044;-62
2021/04/17 11:48:31;;;;;;;8.27;4.20;;;19.00;42.90;;;;;;5072694;28;20096;-62
2021/04/17 11:50:57;;;;;;;6.35;4.60;;;18.70;43.70;;;;;;5072544;28;20077;-62
2021/04/17 11:53:23;;;;;;;5.57;4.30;;;17.40;44.90;;;;;;5072551;28;20713;-62
2021/04/17 11:55:52;;;;;;;8.05;4.45;;;17.10;47.00;;;;;;5071223;28;20025;-62
2021/04/17 11:58:19;;;;;;;8.68;4.18;;;17.70;44.80;;;;;;5072166;28;20036;-62
2021/04/17 12:00:45;;;;;;;5.22;3.70;;;18.10;44.30;;;;;;5072173;28;20040;-62
2021/04/17 12:03:15;;;;;;;9.10;4.28;;;19.00;43.70;;;;;;5070752;28;20024;-62
2021/04/17 12:05:41;;;;;;;10.35;4.00;;;18.70;43.60;;;;;;5072090;28;20151;-62
2021/04/17 12:08:07;;;;;;;8.60;3.42;;;18.00;43.60;;;;;;5070754;28;20553;-62
2021/04/17 12:10:32;;;;;;;11.15;5.68;;;17.70;43.70;;;;;;5071916;28;20151;-62
2021/04/17 12:12:58;;;;;;;8.57;4.25;;;17.20;46.00;;;;;;5071964;28;20150;-62
2021/04/17 12:15:24;;;;;;;6.63;4.28;;;18.10;44.40;;;;;;5071942;28;20032;-62
2021/04/17 12:17:50;;;;;;;7.45;4.65;;;18.30;44.20;;;;;;5072112;28;20028;-62
2021/04/17 12:20:16;;;;;;;7.20;4.15;;;18.70;43.40;;;;;;5071769;28;20075;-62
2021/04/17 12:22:41;;;;;;;6.40;3.92;;;18.90;42.00;;;;;;5071666;28;20048;-62
2021/04/17 12:25:08;;;;;;;7.72;3.75;;;18.60;42.40;;;;;;5071723;28;20254;-62
2021/04/17 12:27:34;;;;;;;4.95;3.72;;;19.50;41.30;;;;;;5071902;28;20020;-62
2021/04/17 12:30:01;;;;;;;5.15;3.47;;;20.40;39.30;;;;;;5071554;28;20032;-62
2021/04/17 12:32:28;;;;;;;4.63;3.50;;;20.90;39.10;;;;;;5071651;28;20444;-62
2021/04/17 12:34:54;;;;;;;6.65;3.33;;;20.00;39.20;;;;;;5070014;28;20097;-62
2021/04/17 12:37:20;;;;;;;5.63;3.22;;;20.00;39.40;;;;;;5071552;28;20503;-62
2021/04/17 12:39:46;;;;;;;3.53;3.22;;;19.30;39.60;;;;;;5071548;28;20095;-62
2021/04/17 12:42:12;;;;;;;8.30;3.53;;;18.60;41.00;;;;;;5070025;28;20029;-62
2021/04/17 12:44:38;;;;;;;8.65;4.60;;;18.60;40.70;;;;;;5070189;28;20032;-62
2021/04/17 12:47:04;;;;;;;5.72;3.88;;;18.50;40.70;;;;;;5071620;28;20032;-62
2021/04/17 12:49:29;;;;;;;5.32;3.38;;;19.40;40.30;;;;;;5071723;28;20017;-62
2021/04/17 12:51:55;;;;;;;4.32;3.63;;;19.50;39.50;;;;;;5071377;28;20064;-62
2021/04/17 12:54:21;;;;;;;5.72;3.83;;;19.10;39.90;;;;;;5070198;28;20028;-62